Montoursville, Pennsylvania
Current Conditions -  °F | °C
As of 4:54 AM on Saturday 22 Nov 2014 (Local Time) from KIPT Reporting Station
Clear Clear  
Wind Chill: -10°   Ceiling: Unl
Heat Index: -10°   Visibility: 10mi
Dew Point: -13°   Wind: 0mph
Humidity: 80%   Direction: NA
Pressure: 30.46"   Gusts: NA
Location:  41.25°N, 76.92°W
Report Text: KIPT 220954Z AUTO 00000KT 10SM CLR M10/M13 A3046 RMK AO2 SLP323 T11001128
Loading
Personal Weather Stations






























Interactive Weather Map New forecast layout! Learn more

10-Day Weather Forecast

Advertisements
Track Severe Weather on mobile